Time;durP1;ratioP1;P1;durP2;ratioP2;P2;SDS_P1;SDS_P2;PMS_P1;PMS_P2;Temp;Humidity;BMP_temperature;BMP_pressure;BME280_temperature;BME280_humidity;BME280_pressure;Samples;Min_cycle;Max_cycle;Signal;HPM_P1;HPM_P2
2023/11/19 00:00:31;;;;;;;3.42;2.92;;;13.20;78.60;;;;;;4953484;28;20464;-76
2023/11/19 00:02:57;;;;;;;3.58;3.05;;;13.20;78.60;;;;;;4953144;29;20126;-76
2023/11/19 00:05:23;;;;;;;3.38;3.00;;;13.20;78.60;;;;;;4952422;29;20035;-75
2023/11/19 00:07:48;;;;;;;3.95;3.08;;;13.30;78.70;;;;;;4952258;29;20074;-75
2023/11/19 00:10:18;;;;;;;3.33;3.03;;;13.30;78.70;;;;;;4951984;29;20039;-75
2023/11/19 00:12:46;;;;;;;3.58;2.90;;;13.30;78.60;;;;;;4948998;28;20502;-76
2023/11/19 00:15:18;;;;;;;4.90;3.90;;;13.30;78.60;;;;;;4946525;29;20262;-76
2023/11/19 00:17:45;;;;;;;3.20;2.90;;;13.40;78.70;;;;;;4952150;28;20049;-76
2023/11/19 00:20:19;;;;;;;3.78;3.00;;;13.40;78.60;;;;;;4932574;29;20094;-76
2023/11/19 00:22:48;;;;;;;4.53;3.38;;;13.40;78.70;;;;;;4949743;29;20391;-75
2023/11/19 00:25:14;;;;;;;3.83;3.33;;;13.40;78.60;;;;;;4946260;29;20039;-76
2023/11/19 00:27:39;;;;;;;3.30;3.00;;;13.40;78.50;;;;;;4953628;29;20050;-75
2023/11/19 00:30:08;;;;;;;3.70;3.10;;;13.40;78.60;;;;;;4946925;29;20031;-76
2023/11/19 00:32:33;;;;;;;3.28;2.97;;;13.40;78.50;;;;;;4953375;29;20066;-76
2023/11/19 00:35:00;;;;;;;4.20;3.30;;;13.50;78.60;;;;;;4952434;28;20102;-75
2023/11/19 00:37:25;;;;;;;4.82;3.03;;;13.50;78.50;;;;;;4945581;29;20050;-76
2023/11/19 00:39:51;;;;;;;4.25;3.30;;;13.50;78.50;;;;;;4936739;29;20031;-76
2023/11/19 00:42:18;;;;;;;3.70;3.20;;;13.50;78.50;;;;;;4920466;29;20126;-76
2023/11/19 00:44:43;;;;;;;4.22;3.47;;;13.60;78.60;;;;;;4950457;29;20110;-76
2023/11/19 00:47:09;;;;;;;4.32;3.33;;;13.60;78.50;;;;;;4936208;29;20091;-76
2023/11/19 00:49:35;;;;;;;3.50;3.13;;;13.60;78.50;;;;;;4951282;29;20039;-76
2023/11/19 00:52:02;;;;;;;3.83;3.17;;;13.60;78.50;;;;;;4936341;29;20118;-76
2023/11/19 00:54:27;;;;;;;3.00;2.70;;;13.60;78.50;;;;;;4935522;29;20054;-76
2023/11/19 00:56:54;;;;;;;3.47;3.10;;;13.70;78.50;;;;;;4936002;29;20035;-75
2023/11/19 00:59:21;;;;;;;3.45;2.97;;;13.70;78.50;;;;;;4951513;29;20392;-75
2023/11/19 01:01:50;;;;;;;2.97;2.72;;;13.70;78.50;;;;;;4931525;29;20031;-76
2023/11/19 01:04:17;;;;;;;3.78;3.05;;;13.70;78.50;;;;;;4949043;28;20044;-76
2023/11/19 01:06:42;;;;;;;3.55;3.15;;;13.80;78.50;;;;;;4951736;29;20106;-76
2023/11/19 01:09:09;;;;;;;3.95;3.22;;;13.80;78.50;;;;;;4952538;29;20483;-76
2023/11/19 01:11:35;;;;;;;3.28;2.83;;;13.80;78.40;;;;;;4950482;29;20038;-76
2023/11/19 01:14:01;;;;;;;3.08;2.78;;;13.80;78.40;;;;;;4950475;28;20463;-75
2023/11/19 01:16:27;;;;;;;2.92;2.60;;;13.80;78.40;;;;;;4948097;29;20027;-76
2023/11/19 01:18:53;;;;;;;3.17;2.78;;;13.80;78.40;;;;;;4950455;29;20054;-76
2023/11/19 01:21:19;;;;;;;3.30;2.90;;;13.90;78.40;;;;;;4952216;29;20480;-76
2023/11/19 01:23:45;;;;;;;3.78;3.05;;;13.90;78.40;;;;;;4952512;29;20061;-76
2023/11/19 01:26:12;;;;;;;3.20;2.90;;;13.90;78.40;;;;;;4950865;29;20039;-76
2023/11/19 01:28:39;;;;;;;3.65;2.70;;;13.90;78.40;;;;;;4951181;29;20043;-76
2023/11/19 01:31:08;;;;;;;2.85;2.55;;;14.00;78.40;;;;;;4949988;28;20142;-76
2023/11/19 01:33:36;;;;;;;2.80;2.50;;;14.00;78.40;;;;;;4950459;29;20511;-75
2023/11/19 01:36:01;;;;;;;3.47;2.55;;;14.00;78.40;;;;;;4928629;29;20459;-76
2023/11/19 01:38:27;;;;;;;3.13;2.45;;;14.00;78.40;;;;;;4946499;29;20118;-76
2023/11/19 01:40:57;;;;;;;3.75;2.40;;;14.00;78.40;;;;;;4919265;29;20399;-76
2023/11/19 01:43:43;;;;;;;2.92;2.50;;;14.10;78.40;;;;;;4934981;29;20475;-75
2023/11/19 01:46:11;;;;;;;3.13;2.10;;;14.10;78.40;;;;;;4951060;29;20027;-76
2023/11/19 01:48:42;;;;;;;2.40;2.20;;;14.10;78.40;;;;;;4932115;29;20098;-76
2023/11/19 01:51:09;;;;;;;3.45;2.67;;;14.10;78.40;;;;;;4933220;29;20027;-76
2023/11/19 01:53:37;;;;;;;2.55;2.10;;;14.10;78.30;;;;;;4951684;29;20134;-76
2023/11/19 01:56:05;;;;;;;3.38;2.50;;;14.20;78.40;;;;;;4951731;29;20033;-76
2023/11/19 01:58:31;;;;;;;3.08;2.08;;;14.10;78.30;;;;;;4934500;29;20066;-76
2023/11/19 02:00:58;;;;;;;3.63;2.30;;;14.10;78.20;;;;;;4951383;29;20058;-75
2023/11/19 02:03:26;;;;;;;2.35;2.15;;;14.20;78.30;;;;;;4950714;29;20158;-76
2023/11/19 02:05:53;;;;;;;3.83;2.40;;;14.20;78.30;;;;;;4950923;29;20032;-76
2023/11/19 02:08:20;;;;;;;2.83;2.20;;;14.20;78.30;;;;;;4949510;29;20696;-76
2023/11/19 02:10:45;;;;;;;3.00;2.22;;;14.20;78.30;;;;;;4948105;29;20027;-76
2023/11/19 02:13:13;;;;;;;2.63;2.10;;;14.20;78.30;;;;;;4945321;29;20149;-75
2023/11/19 02:15:41;;;;;;;4.35;2.30;;;14.20;78.20;;;;;;4924363;29;20063;-75
2023/11/19 02:18:29;;;;;;;3.35;2.00;;;14.30;78.30;;;;;;4950125;29;20121;-75
2023/11/19 02:20:56;;;;;;;3.38;2.00;;;14.30;78.30;;;;;;4949769;29;20031;-75
2023/11/19 02:23:22;;;;;;;3.50;2.13;;;14.30;78.20;;;;;;4949392;29;20035;-76
2023/11/19 02:26:00;;;;;;;3.55;1.95;;;14.30;78.20;;;;;;4944322;29;20102;-75
2023/11/19 02:28:26;;;;;;;4.70;2.15;;;14.30;78.20;;;;;;4950417;29;20492;-76
2023/11/19 02:30:53;;;;;;;3.60;2.00;;;14.30;78.20;;;;;;4949220;29;20089;-76
2023/11/19 02:33:18;;;;;;;3.63;2.00;;;14.30;78.20;;;;;;4962677;28;20659;-76
2023/11/19 02:35:44;;;;;;;4.07;1.98;;;14.30;78.20;;;;;;4964077;28;20035;-76
2023/11/19 02:38:10;;;;;;;2.90;1.80;;;14.40;78.20;;;;;;4951348;29;20447;-76
2023/11/19 02:40:36;;;;;;;4.43;2.10;;;14.40;78.20;;;;;;4931214;29;20059;-76
2023/11/19 02:43:04;;;;;;;5.25;2.28;;;14.40;78.20;;;;;;4915055;29;20055;-76
2023/11/19 02:45:30;;;;;;;2.10;1.75;;;14.40;78.20;;;;;;4937740;29;20027;-76
2023/11/19 02:47:56;;;;;;;3.08;1.90;;;14.40;78.20;;;;;;4952805;29;20067;-76
2023/11/19 02:50:25;;;;;;;3.95;1.90;;;14.40;78.10;;;;;;4953577;29;20118;-76
2023/11/19 02:52:53;;;;;;;2.58;1.63;;;14.40;78.10;;;;;;4937649;29;20039;-76
2023/11/19 02:55:19;;;;;;;3.67;1.92;;;14.40;78.10;;;;;;4953510;29;20042;-76
2023/11/19 02:57:48;;;;;;;3.30;1.98;;;14.50;78.10;;;;;;4951139;29;20118;-75
2023/11/19 03:00:16;;;;;;;4.30;1.80;;;14.40;78.10;;;;;;4952831;29;20035;-76
2023/11/19 03:02:47;;;;;;;3.65;1.90;;;14.40;78.10;;;;;;4954267;29;20118;-75
2023/11/19 03:05:14;;;;;;;3.42;1.70;;;14.50;78.10;;;;;;4954038;28;20086;-75
2023/11/19 03:07:43;;;;;;;3.00;1.80;;;14.50;78.10;;;;;;4953486;28;20063;-76
2023/11/19 03:10:15;;;;;;;3.45;1.70;;;14.50;78.20;;;;;;4951076;28;20031;-75
2023/11/19 03:12:42;;;;;;;4.45;2.15;;;14.50;78.10;;;;;;4950009;29;20032;-75
2023/11/19 03:15:11;;;;;;;3.20;1.77;;;14.50;78.10;;;;;;4953144;29;20094;-76
2023/11/19 03:17:41;;;;;;;4.13;1.77;;;14.50;78.10;;;;;;4946824;29;20048;-76
2023/11/19 03:20:09;;;;;;;3.30;1.70;;;14.50;78.10;;;;;;4948532;29;20035;-76
2023/11/19 03:22:41;;;;;;;3.95;1.90;;;14.50;78.10;;;;;;4952739;29;20134;-75
2023/11/19 03:25:08;;;;;;;3.33;1.60;;;14.60;78.20;;;;;;4953349;29;20031;-76
2023/11/19 03:27:43;;;;;;;3.10;1.85;;;14.50;78.10;;;;;;4950470;29;20500;-76
2023/11/19 03:30:09;;;;;;;4.20;1.90;;;14.50;78.10;;;;;;4946954;29;20112;-76
2023/11/19 03:32:35;;;;;;;5.18;2.22;;;14.50;78.10;;;;;;4937267;29;20031;-75
2023/11/19 03:35:09;;;;;;;3.83;1.95;;;14.60;78.20;;;;;;4953044;29;20039;-75
2023/11/19 03:37:36;;;;;;;4.05;2.17;;;14.60;78.20;;;;;;4953345;29;20101;-75
2023/11/19 03:40:02;;;;;;;4.63;1.90;;;14.50;78.10;;;;;;4954507;28;20110;-75
2023/11/19 03:42:29;;;;;;;3.95;1.85;;;14.60;78.20;;;;;;4937514;29;20031;-75
2023/11/19 03:44:55;;;;;;;4.82;2.08;;;14.50;78.10;;;;;;4936936;29;20027;-77
2023/11/19 03:47:21;;;;;;;4.25;1.65;;;14.50;78.50;;;;;;4952758;29;20419;-75
2023/11/19 03:49:51;;;;;;;4.35;2.05;;;14.60;78.20;;;;;;4952475;29;20031;-76
2023/11/19 03:52:18;;;;;;;3.63;1.83;;;14.60;78.20;;;;;;4953139;28;20035;-75
2023/11/19 03:54:45;;;;;;;3.55;1.55;;;14.60;78.20;;;;;;4951868;29;20114;-75
2023/11/19 03:57:12;;;;;;;4.03;1.83;;;14.50;78.10;;;;;;4936170;29;20039;-75
2023/11/19 03:59:38;;;;;;;4.75;2.25;;;14.50;78.10;;;;;;4952544;29;20036;-76
2023/11/19 04:02:03;;;;;;;3.67;1.77;;;14.60;78.20;;;;;;4936102;29;20055;-76
2023/11/19 04:04:29;;;;;;;5.05;1.88;;;14.60;78.10;;;;;;4953296;29;20035;-75
2023/11/19 04:06:56;;;;;;;3.95;1.73;;;14.60;78.10;;;;;;4951640;29;20420;-75
2023/11/19 04:09:22;;;;;;;5.28;1.95;;;14.50;78.10;;;;;;4952205;29;20035;-76
2023/11/19 04:11:48;;;;;;;4.57;1.98;;;14.50;78.10;;;;;;4936611;29;20197;-75
2023/11/19 04:14:14;;;;;;;5.25;2.22;;;14.60;78.10;;;;;;4951240;29;20114;-75
2023/11/19 04:16:41;;;;;;;6.82;2.00;;;14.50;78.10;;;;;;4953109;28;20042;-75
2023/11/19 04:19:07;;;;;;;5.93;2.20;;;14.60;78.20;;;;;;4951847;29;20063;-75
2023/11/19 04:21:33;;;;;;;3.08;1.92;;;14.50;78.10;;;;;;4950069;29;20451;-75
2023/11/19 04:23:59;;;;;;;5.85;2.20;;;14.50;78.10;;;;;;4952685;28;20477;-76
2023/11/19 04:26:24;;;;;;;4.88;1.70;;;14.50;78.10;;;;;;4935388;29;20031;-76
2023/11/19 04:28:50;;;;;;;4.25;1.88;;;14.50;78.10;;;;;;4935880;29;20487;-75
2023/11/19 04:31:19;;;;;;;5.57;2.00;;;14.60;78.20;;;;;;4952810;29;20479;-76
2023/11/19 04:33:45;;;;;;;6.85;2.05;;;14.50;78.10;;;;;;4954108;29;20086;-75
2023/11/19 04:36:11;;;;;;;5.40;2.10;;;14.50;78.10;;;;;;4951690;29;20027;-75
2023/11/19 04:38:38;;;;;;;4.75;2.22;;;14.50;78.20;;;;;;4952682;29;20714;-75
2023/11/19 04:41:05;;;;;;;4.25;2.10;;;14.50;78.20;;;;;;4950861;29;20158;-75
2023/11/19 04:43:32;;;;;;;4.25;2.10;;;14.50;78.20;;;;;;4930185;29;20059;-76
2023/11/19 04:45:58;;;;;;;4.97;2.30;;;14.50;78.30;;;;;;4933460;29;20036;-75
2023/11/19 04:48:24;;;;;;;6.30;2.47;;;14.50;78.30;;;;;;4934885;29;20050;-75
2023/11/19 04:50:52;;;;;;;5.13;1.75;;;14.50;78.30;;;;;;4951041;29;20345;-76
2023/11/19 04:53:18;;;;;;;5.60;2.30;;;14.50;78.40;;;;;;4951537;29;20106;-75
2023/11/19 04:55:44;;;;;;;5.70;1.98;;;14.40;78.30;;;;;;4947349;29;20106;-75
2023/11/19 04:58:10;;;;;;;5.25;1.95;;;14.50;78.40;;;;;;4934916;29;20047;-75
2023/11/19 05:00:36;;;;;;;5.80;2.10;;;14.50;78.40;;;;;;4951214;29;20039;-75
2023/11/19 05:03:02;;;;;;;7.85;2.45;;;14.40;78.40;;;;;;4951758;29;20031;-76
2023/11/19 05:05:28;;;;;;;6.28;1.90;;;14.40;78.40;;;;;;4950764;28;20035;-76
2023/11/19 05:07:54;;;;;;;6.57;1.95;;;14.40;78.50;;;;;;4952034;29;20487;-75
2023/11/19 05:10:20;;;;;;;5.07;1.90;;;14.40;78.40;;;;;;4951885;29;20035;-75
2023/11/19 05:12:46;;;;;;;7.22;1.70;;;14.40;78.40;;;;;;4950207;29;20034;-75
2023/11/19 05:15:12;;;;;;;4.55;2.05;;;14.40;78.40;;;;;;4950552;29;20284;-76
2023/11/19 05:17:38;;;;;;;5.13;2.15;;;14.30;78.40;;;;;;4951115;29;20415;-75
2023/11/19 05:20:12;;;;;;;6.72;2.05;;;14.40;78.50;;;;;;4950007;29;20095;-75
2023/11/19 05:22:40;;;;;;;3.60;1.90;;;14.30;78.50;;;;;;4951174;29;20034;-75
2023/11/19 05:25:06;;;;;;;4.65;1.90;;;14.30;78.50;;;;;;4952738;28;20039;-75
2023/11/19 05:27:32;;;;;;;8.48;2.30;;;14.30;78.50;;;;;;4952245;29;20051;-75
2023/11/19 05:29:57;;;;;;;5.80;1.98;;;14.30;78.50;;;;;;4934062;29;20122;-75
2023/11/19 05:32:23;;;;;;;5.85;2.03;;;14.30;78.50;;;;;;4935521;29;20062;-75
2023/11/19 05:34:49;;;;;;;3.90;1.90;;;14.30;78.60;;;;;;4952475;29;20042;-75
2023/11/19 05:37:14;;;;;;;7.13;2.03;;;14.20;78.60;;;;;;4951299;29;20511;-76
2023/11/19 05:39:40;;;;;;;6.28;2.20;;;14.20;78.60;;;;;;4952162;28;20027;-75
2023/11/19 05:42:06;;;;;;;5.30;1.70;;;14.20;78.60;;;;;;4935206;29;20027;-75
2023/11/19 05:44:31;;;;;;;5.40;1.80;;;14.20;78.60;;;;;;4935255;29;20024;-76
2023/11/19 05:46:57;;;;;;;5.40;1.98;;;14.20;78.60;;;;;;4952783;29;20032;-76
2023/11/19 05:49:23;;;;;;;5.90;2.20;;;14.20;78.60;;;;;;4951166;28;20366;-76
2023/11/19 05:51:48;;;;;;;5.88;1.80;;;14.20;78.60;;;;;;4934876;29;20027;-75
2023/11/19 05:54:14;;;;;;;4.90;2.10;;;14.20;78.60;;;;;;4951458;29;20070;-75
2023/11/19 05:56:40;;;;;;;6.47;2.10;;;14.20;78.60;;;;;;4951607;29;20510;-75
2023/11/19 05:59:14;;;;;;;4.80;2.13;;;14.20;78.60;;;;;;4951146;28;20105;-76
2023/11/19 06:01:41;;;;;;;6.03;2.08;;;14.20;78.70;;;;;;4949461;29;20035;-76
2023/11/19 06:04:07;;;;;;;8.45;2.35;;;14.20;78.60;;;;;;4950978;29;20032;-75
2023/11/19 06:06:33;;;;;;;5.18;2.05;;;14.20;78.60;;;;;;4950668;29;20060;-76
2023/11/19 06:08:58;;;;;;;6.78;2.40;;;14.20;78.70;;;;;;4948560;29;20047;-75
2023/11/19 06:11:26;;;;;;;7.03;2.47;;;14.10;78.60;;;;;;4934225;29;20399;-75
2023/11/19 06:13:52;;;;;;;6.10;2.38;;;14.10;78.60;;;;;;4949555;29;20100;-76
2023/11/19 06:16:18;;;;;;;5.85;2.38;;;14.20;78.70;;;;;;4952125;28;20031;-75
2023/11/19 06:18:44;;;;;;;5.13;1.88;;;14.10;78.60;;;;;;4937330;29;20426;-75
2023/11/19 06:21:11;;;;;;;4.60;2.05;;;14.10;78.60;;;;;;4949457;29;20042;-75
2023/11/19 06:23:37;;;;;;;6.22;2.00;;;14.10;78.70;;;;;;4954175;29;20031;-76
2023/11/19 06:26:03;;;;;;;6.22;2.35;;;14.10;78.70;;;;;;4920658;29;20028;-75
2023/11/19 06:28:28;;;;;;;6.22;2.30;;;14.10;78.70;;;;;;4952157;29;20043;-75
2023/11/19 06:30:54;;;;;;;5.43;2.05;;;14.00;78.70;;;;;;4955346;28;20046;-75
2023/11/19 06:33:20;;;;;;;4.28;1.83;;;14.10;78.70;;;;;;4954888;29;20361;-75
2023/11/19 06:35:46;;;;;;;5.47;1.98;;;14.00;78.70;;;;;;4953415;29;20158;-75
2023/11/19 06:38:11;;;;;;;7.40;2.30;;;14.10;78.70;;;;;;4954204;29;20034;-75
2023/11/19 06:40:37;;;;;;;6.68;2.28;;;14.00;78.70;;;;;;4955749;29;20467;-76
2023/11/19 06:43:03;;;;;;;5.55;2.03;;;14.00;78.70;;;;;;4928823;29;20540;-75
2023/11/19 06:45:29;;;;;;;6.43;2.42;;;14.00;78.80;;;;;;4955599;29;20508;-75
2023/11/19 06:47:55;;;;;;;5.45;2.13;;;14.00;78.80;;;;;;4936521;29;20381;-75
2023/11/19 06:50:21;;;;;;;4.45;1.92;;;14.00;78.80;;;;;;4954716;29;20031;-75
2023/11/19 06:52:47;;;;;;;7.03;2.50;;;14.00;78.80;;;;;;4952857;29;20035;-76
2023/11/19 06:55:13;;;;;;;6.68;2.08;;;14.00;78.80;;;;;;4938893;29;20031;-76
2023/11/19 06:57:38;;;;;;;5.40;2.17;;;14.00;78.80;;;;;;4937659;29;20121;-76
2023/11/19 07:00:06;;;;;;;5.47;2.30;;;14.00;78.80;;;;;;4955651;29;20035;-75
2023/11/19 07:02:32;;;;;;;6.10;2.17;;;14.00;78.90;;;;;;4955016;29;20037;-75
2023/11/19 07:04:57;;;;;;;7.95;2.38;;;13.90;78.80;;;;;;4952122;29;20102;-75
2023/11/19 07:07:23;;;;;;;7.72;2.00;;;13.90;78.80;;;;;;4953564;29;20130;-76
2023/11/19 07:09:50;;;;;;;7.00;2.30;;;13.90;78.90;;;;;;4934493;29;20500;-75
2023/11/19 07:12:15;;;;;;;5.47;2.40;;;13.90;78.80;;;;;;4932091;29;20408;-76
2023/11/19 07:14:41;;;;;;;7.65;2.30;;;13.90;78.90;;;;;;4935731;29;20032;-76
2023/11/19 07:17:08;;;;;;;5.40;2.13;;;13.90;78.80;;;;;;4955121;29;20039;-75
2023/11/19 07:19:36;;;;;;;7.20;2.58;;;13.90;78.90;;;;;;4955240;29;20031;-75
2023/11/19 07:22:02;;;;;;;4.95;1.92;;;13.90;78.90;;;;;;4953944;29;20031;-75
2023/11/19 07:24:28;;;;;;;9.43;2.00;;;13.90;78.90;;;;;;4952096;29;20038;-77
2023/11/19 07:26:54;;;;;;;7.20;2.10;;;13.90;78.90;;;;;;4953395;28;20039;-75
2023/11/19 07:29:21;;;;;;;7.13;2.13;;;13.90;78.90;;;;;;4954358;29;20380;-75
2023/11/19 07:31:49;;;;;;;4.55;1.92;;;13.90;78.90;;;;;;4953513;29;20130;-75
2023/11/19 07:34:14;;;;;;;4.70;1.70;;;13.90;79.00;;;;;;4955136;28;20110;-75
2023/11/19 07:36:41;;;;;;;5.40;2.42;;;13.90;78.90;;;;;;4953746;29;20497;-75
2023/11/19 07:39:06;;;;;;;6.00;2.10;;;13.80;78.90;;;;;;4953539;29;20039;-75
2023/11/19 07:41:33;;;;;;;5.25;1.90;;;13.90;79.00;;;;;;4954281;28;20106;-75
2023/11/19 07:43:58;;;;;;;5.35;1.80;;;13.80;78.90;;;;;;4950729;29;20042;-75
2023/11/19 07:46:25;;;;;;;4.45;2.00;;;13.80;78.90;;;;;;4937797;29;20027;-75
2023/11/19 07:48:52;;;;;;;6.18;2.28;;;13.80;78.90;;;;;;4952844;29;20043;-75
2023/11/19 07:51:17;;;;;;;5.35;1.83;;;13.80;79.00;;;;;;4936873;29;20039;-75
2023/11/19 07:53:43;;;;;;;6.40;2.10;;;13.80;78.90;;;;;;4954630;29;20087;-76
2023/11/19 07:56:10;;;;;;;5.25;2.05;;;13.80;78.90;;;;;;4952870;29;20439;-75
2023/11/19 07:58:36;;;;;;;4.57;1.70;;;13.80;79.00;;;;;;4952930;29;20492;-75
2023/11/19 08:01:02;;;;;;;5.00;1.85;;;13.80;79.00;;;;;;4932270;29;20027;-75
2023/11/19 08:03:29;;;;;;;5.03;2.22;;;13.80;79.00;;;;;;4948840;29;20127;-75
2023/11/19 08:05:58;;;;;;;5.72;2.13;;;13.80;79.00;;;;;;4953255;29;20086;-75
2023/11/19 08:08:24;;;;;;;5.82;1.83;;;13.80;79.00;;;;;;4949383;29;20078;-75
2023/11/19 08:10:51;;;;;;;4.97;1.90;;;13.80;79.00;;;;;;4947778;29;20067;-75
2023/11/19 08:13:17;;;;;;;5.07;2.15;;;13.80;78.90;;;;;;4924761;29;20039;-75
2023/11/19 08:15:43;;;;;;;6.32;1.92;;;13.80;79.00;;;;;;4949157;29;20075;-76
2023/11/19 08:18:09;;;;;;;8.07;2.75;;;13.80;79.00;;;;;;4947287;29;20130;-75
2023/11/19 08:20:35;;;;;;;5.88;2.25;;;13.80;79.00;;;;;;4933693;29;20388;-76
2023/11/19 08:23:03;;;;;;;4.50;2.22;;;13.80;78.90;;;;;;4950172;29;20027;-76
2023/11/19 08:25:29;;;;;;;4.07;1.65;;;13.80;78.90;;;;;;4959623;28;20031;-75
2023/11/19 08:27:55;;;;;;;6.65;2.00;;;13.80;78.90;;;;;;4951658;29;20134;-75
2023/11/19 08:30:20;;;;;;;8.23;2.65;;;13.80;78.90;;;;;;4947901;29;20559;-75
2023/11/19 08:32:46;;;;;;;6.80;2.00;;;13.80;78.90;;;;;;4959791;28;20032;-78
2023/11/19 08:35:12;;;;;;;6.88;2.10;;;13.80;78.80;;;;;;4935431;29;20050;-77
2023/11/19 08:37:38;;;;;;;6.15;1.85;;;13.80;78.80;;;;;;4950181;29;20038;-77
2023/11/19 08:40:04;;;;;;;8.32;2.47;;;13.80;78.80;;;;;;4934810;29;20399;-75
2023/11/19 08:42:30;;;;;;;6.85;2.08;;;13.80;78.80;;;;;;4930610;29;20042;-76
2023/11/19 08:44:56;;;;;;;4.57;1.98;;;13.80;78.80;;;;;;4947089;28;20032;-76
2023/11/19 08:47:25;;;;;;;5.35;2.20;;;13.80;78.80;;;;;;4953527;29;20400;-76
2023/11/19 08:49:54;;;;;;;5.32;1.90;;;13.80;78.80;;;;;;4951996;29;20063;-75
2023/11/19 08:52:20;;;;;;;6.38;2.03;;;13.80;78.80;;;;;;4935495;29;20040;-75
2023/11/19 08:54:46;;;;;;;6.20;2.00;;;13.80;78.80;;;;;;4948256;29;20419;-75
2023/11/19 08:57:12;;;;;;;5.93;2.10;;;13.80;78.80;;;;;;4917651;29;20032;-74
2023/11/19 08:59:38;;;;;;;6.38;2.42;;;13.80;78.90;;;;;;4948956;29;20428;-74
2023/11/19 09:02:08;;;;;;;8.05;2.47;;;13.80;78.90;;;;;;4931781;29;20058;-74
2023/11/19 09:04:33;;;;;;;6.45;2.05;;;13.80;79.00;;;;;;4951928;29;20039;-76
2023/11/19 09:06:59;;;;;;;6.47;2.00;;;13.80;79.00;;;;;;4952966;29;20071;-77
2023/11/19 09:09:25;;;;;;;4.85;1.88;;;13.80;79.00;;;;;;4951969;29;20448;-76
2023/11/19 09:11:51;;;;;;;7.22;2.20;;;13.80;79.00;;;;;;4933717;29;20063;-76
2023/11/19 09:14:18;;;;;;;5.45;2.00;;;13.80;79.00;;;;;;4950486;29;20091;-76
2023/11/19 09:16:43;;;;;;;8.10;2.45;;;13.80;79.00;;;;;;4944778;29;20055;-77
2023/11/19 09:19:09;;;;;;;6.07;2.25;;;13.80;79.00;;;;;;4952630;28;20061;-76
2023/11/19 09:21:38;;;;;;;6.10;2.05;;;13.80;79.00;;;;;;4952240;29;20051;-76
2023/11/19 09:24:04;;;;;;;5.75;2.03;;;13.90;79.00;;;;;;4950204;29;20035;-76
2023/11/19 09:26:30;;;;;;;6.78;2.38;;;13.90;79.00;;;;;;4952859;29;20031;-80
2023/11/19 09:28:56;;;;;;;5.85;2.00;;;13.90;79.00;;;;;;4948838;29;20530;-77
2023/11/19 09:31:22;;;;;;;5.03;1.90;;;13.80;79.00;;;;;;4946002;29;20038;-76
2023/11/19 09:33:48;;;;;;;4.97;1.70;;;13.90;79.00;;;;;;4951910;29;20027;-78
2023/11/19 09:36:13;;;;;;;5.30;1.75;;;13.90;79.00;;;;;;4932276;29;20071;-77
2023/11/19 09:38:43;;;;;;;5.82;2.40;;;13.90;79.00;;;;;;4930669;29;20476;-76
2023/11/19 09:41:12;;;;;;;6.45;2.15;;;13.90;79.00;;;;;;4945981;28;20484;-76
2023/11/19 09:43:39;;;;;;;5.65;1.98;;;13.90;78.90;;;;;;4949180;29;20031;-76
2023/11/19 09:46:07;;;;;;;4.97;1.80;;;13.90;78.90;;;;;;4946494;29;20036;-77
2023/11/19 09:48:42;;;;;;;6.88;2.40;;;14.00;78.90;;;;;;4949309;29;20039;-79
2023/11/19 09:51:10;;;;;;;4.68;1.80;;;14.00;78.90;;;;;;4948861;28;20468;-78
2023/11/19 09:53:36;;;;;;;3.65;1.73;;;14.00;78.90;;;;;;4940141;29;20459;-76
2023/11/19 09:56:03;;;;;;;7.32;2.33;;;14.00;78.80;;;;;;4955436;29;20077;-76
2023/11/19 09:58:33;;;;;;;5.80;1.95;;;14.00;78.80;;;;;;4954802;29;20038;-76
2023/11/19 10:01:00;;;;;;;5.32;2.47;;;14.10;79.50;;;;;;4956206;28;20032;-76
2023/11/19 10:03:29;;;;;;;6.88;2.35;;;14.00;78.80;;;;;;4954401;29;20416;-76
2023/11/19 10:05:56;;;;;;;5.30;1.70;;;14.10;78.80;;;;;;4949767;29;20067;-77
2023/11/19 10:08:22;;;;;;;4.20;1.98;;;14.10;78.80;;;;;;4955244;29;20078;-76
2023/11/19 10:10:48;;;;;;;5.20;1.98;;;14.10;78.80;;;;;;4935568;29;20028;-76
2023/11/19 10:13:14;;;;;;;6.07;1.90;;;14.10;78.80;;;;;;4952527;29;20515;-76
2023/11/19 10:15:41;;;;;;;5.00;2.10;;;14.10;78.80;;;;;;4938541;29;20130;-77
2023/11/19 10:18:07;;;;;;;8.00;2.10;;;14.20;78.80;;;;;;4933643;29;20039;-76
2023/11/19 10:20:42;;;;;;;5.50;1.88;;;14.20;78.80;;;;;;4953763;29;20162;-76
2023/11/19 10:23:07;;;;;;;;;;;14.20;79.50;;;;;;4954802;29;20035;-77
2023/11/19 10:25:33;;;;;;;4.93;1.70;;;14.20;78.60;;;;;;4954181;29;19914;-77
2023/11/19 10:28:00;;;;;;;6.72;2.20;;;14.20;78.60;;;;;;4956371;28;20039;-76
2023/11/19 10:30:29;;;;;;;5.60;2.13;;;14.20;78.70;;;;;;4953764;29;20488;-76
2023/11/19 10:33:19;;;;;;;4.80;1.80;;;14.20;78.70;;;;;;4938768;29;20046;-77
2023/11/19 10:35:56;;;;;;;5.13;1.85;;;14.20;78.80;;;;;;4935732;29;20075;-77
2023/11/19 10:38:23;;;;;;;5.07;1.80;;;14.20;78.70;;;;;;4955383;29;20083;-77
2023/11/19 10:40:50;;;;;;;5.35;2.20;;;14.20;78.70;;;;;;4955331;28;20031;-76
2023/11/19 10:43:17;;;;;;;7.03;1.98;;;14.20;78.70;;;;;;4954660;29;20053;-79
2023/11/19 10:45:43;;;;;;;9.60;2.42;;;14.20;78.70;;;;;;4954860;28;20039;-76
2023/11/19 10:48:09;;;;;;;6.40;2.00;;;14.30;78.80;;;;;;4950490;29;20035;-76
2023/11/19 10:50:40;;;;;;;7.45;2.30;;;14.30;78.80;;;;;;4951035;29;20032;-76
2023/11/19 10:53:08;;;;;;;5.53;1.73;;;14.30;78.80;;;;;;4952832;28;20082;-78
2023/11/19 10:55:35;;;;;;;6.28;2.13;;;14.40;78.80;;;;;;4953606;29;20391;-77
2023/11/19 10:58:06;;;;;;;5.13;2.00;;;14.40;78.80;;;;;;4952654;29;20039;-74
2023/11/19 11:00:52;;;;;;;5.15;1.75;;;14.40;78.80;;;;;;4954178;29;20043;-74
2023/11/19 11:03:23;;;;;;;5.55;2.00;;;14.40;78.90;;;;;;4951316;28;20043;-76
2023/11/19 11:05:52;;;;;;;5.00;2.08;;;14.40;78.80;;;;;;4956225;28;20031;-75
2023/11/19 11:08:19;;;;;;;4.60;1.83;;;14.40;78.70;;;;;;4954986;28;20048;-76
2023/11/19 11:10:53;;;;;;;4.18;1.85;;;14.40;78.80;;;;;;4955450;29;20027;-74
2023/11/19 11:13:19;;;;;;;6.03;2.10;;;14.40;78.80;;;;;;4955171;28;20027;-76
2023/11/19 11:15:50;;;;;;;6.68;2.13;;;14.40;78.70;;;;;;4951293;29;20468;-75
2023/11/19 11:18:17;;;;;;;6.22;2.17;;;14.40;78.70;;;;;;4947572;29;20058;-75
2023/11/19 11:20:45;;;;;;;5.93;1.70;;;14.50;78.70;;;;;;4953350;29;20549;-75
2023/11/19 11:23:46;;;;;;;5.15;1.92;;;14.50;78.70;;;;;;4955401;29;20035;-76
2023/11/19 11:26:23;;;;;;;6.65;2.45;;;14.50;78.80;;;;;;4944997;29;20567;-76
2023/11/19 11:29:24;;;;;;;5.07;2.00;;;14.50;78.70;;;;;;4944782;29;20115;-75
2023/11/19 11:32:13;;;;;;;5.10;1.77;;;14.60;78.80;;;;;;4954530;28;20035;-76
2023/11/19 11:35:05;;;;;;;5.80;2.10;;;14.50;78.70;;;;;;4954191;29;20023;-75
2023/11/19 11:37:55;;;;;;;4.32;1.90;;;14.60;78.70;;;;;;4941762;29;20044;-77
2023/11/19 11:40:23;;;;;;;5.20;2.08;;;14.60;78.80;;;;;;4955068;28;20122;-76
2023/11/19 11:42:51;;;;;;;4.40;2.00;;;14.60;78.70;;;;;;4952471;29;20035;-76
2023/11/19 11:45:18;;;;;;;4.72;1.70;;;14.60;78.70;;;;;;4953810;29;20023;-77
2023/11/19 11:47:46;;;;;;;5.80;2.05;;;14.60;78.70;;;;;;4954390;29;20073;-76
2023/11/19 11:50:16;;;;;;;5.65;2.08;;;14.70;78.80;;;;;;4954991;29;20027;-76
2023/11/19 11:55:33;;;;;;;5.28;2.00;;;14.70;78.80;;;;;;4950619;29;20118;-77
2023/11/19 11:57:59;;;;;;;5.85;2.00;;;14.70;78.80;;;;;;4949774;29;20085;-75
2023/11/19 12:00:31;;;;;;;5.80;1.92;;;14.70;78.70;;;;;;4954833;29;20031;-76
2023/11/19 12:02:59;;;;;;;6.80;2.00;;;14.70;78.80;;;;;;4934989;29;20027;-75
2023/11/19 12:05:26;;;;;;;4.63;1.88;;;14.80;78.80;;;;;;4951109;29;20043;-76
2023/11/19 12:07:57;;;;;;;6.18;1.83;;;14.70;78.70;;;;;;4947204;29;20145;-77
2023/11/19 12:10:24;;;;;;;6.32;2.72;;;14.80;78.80;;;;;;4954238;28;20031;-77
2023/11/19 12:12:53;;;;;;;5.03;1.73;;;14.80;78.70;;;;;;4951203;28;20023;-75
2023/11/19 12:15:24;;;;;;;4.18;2.08;;;14.80;78.70;;;;;;4953160;28;20035;-76
2023/11/19 12:17:51;;;;;;;5.63;1.90;;;14.80;78.70;;;;;;4954576;29;20112;-74
2023/11/19 12:20:18;;;;;;;5.03;1.98;;;14.80;78.70;;;;;;4946979;28;20035;-75
2023/11/19 12:22:45;;;;;;;5.55;2.20;;;14.80;78.70;;;;;;4954271;28;20038;-75
2023/11/19 12:25:13;;;;;;;4.40;1.80;;;14.90;78.70;;;;;;4953422;29;20031;-75
2023/11/19 12:27:44;;;;;;;4.72;2.15;;;14.90;78.70;;;;;;4953545;28;20086;-76
2023/11/19 12:30:10;;;;;;;5.93;2.08;;;14.90;78.70;;;;;;4949447;29;20038;-76
2023/11/19 12:32:39;;;;;;;4.45;1.75;;;14.90;78.70;;;;;;4950956;29;20086;-75
2023/11/19 12:35:06;;;;;;;5.15;1.83;;;14.90;78.70;;;;;;4937416;29;20560;-75
2023/11/19 12:37:32;;;;;;;4.68;1.65;;;14.90;78.70;;;;;;4946926;29;20055;-76
2023/11/19 12:39:58;;;;;;;7.43;2.30;;;14.90;78.60;;;;;;4935030;29;20456;-76
2023/11/19 12:42:38;;;;;;;6.22;1.98;;;15.00;78.70;;;;;;4953002;29;20027;-77
2023/11/19 12:45:04;;;;;;;6.03;1.95;;;15.00;78.70;;;;;;4921305;29;20059;-76
2023/11/19 12:47:30;;;;;;;6.10;2.38;;;15.00;78.60;;;;;;4954030;29;20074;-75
2023/11/19 12:49:57;;;;;;;5.60;1.98;;;15.00;78.60;;;;;;4949420;29;20067;-75
2023/11/19 12:52:23;;;;;;;3.28;1.55;;;15.00;78.50;;;;;;4953979;29;20042;-74